Time;durP1;ratioP1;P1;durP2;ratioP2;P2;SDS_P1;SDS_P2;PMS_P1;PMS_P2;Temp;Humidity;BMP_temperature;BMP_pressure;BME280_temperature;BME280_humidity;BME280_pressure;Samples;Min_cycle;Max_cycle;Signal;HPM_P1;HPM_P2
2022/03/04 00:02:07;;;;;;;11.77;6.63;;;7.30;91.50;;;;;;4950562;28;20034;-68
2022/03/04 00:04:36;;;;;;;14.85;5.20;;;7.30;91.60;;;;;;4951278;28;20104;-67
2022/03/04 00:07:06;;;;;;;12.75;5.68;;;7.30;91.70;;;;;;4950537;28;20027;-67
2022/03/04 00:09:32;;;;;;;17.55;7.78;;;7.20;91.60;;;;;;4950676;28;20539;-67
2022/03/04 00:11:58;;;;;;;16.92;7.50;;;7.20;91.60;;;;;;4952310;28;20034;-67
2022/03/04 00:14:27;;;;;;;17.55;7.30;;;7.20;91.60;;;;;;4954694;28;20043;-67
2022/03/04 00:16:53;;;;;;;15.07;7.93;;;7.20;91.60;;;;;;4948163;28;20028;-67
2022/03/04 00:19:19;;;;;;;16.90;7.18;;;7.10;91.60;;;;;;4948358;28;20035;-67
2022/03/04 00:21:48;;;;;;;16.77;7.63;;;7.10;91.60;;;;;;4954892;28;20031;-67
2022/03/04 00:24:19;;;;;;;13.18;5.80;;;7.10;91.60;;;;;;4953805;28;20042;-67
2022/03/04 00:26:46;;;;;;;11.95;5.68;;;7.10;91.60;;;;;;4954738;28;20071;-67
2022/03/04 00:29:13;;;;;;;15.65;6.82;;;7.10;91.60;;;;;;4952904;28;20027;-68
2022/03/04 00:31:39;;;;;;;14.35;6.72;;;7.10;91.60;;;;;;4953514;28;20031;-67
2022/03/04 00:34:06;;;;;;;21.38;8.45;;;7.10;91.60;;;;;;4955030;28;20030;-68
2022/03/04 00:36:40;;;;;;;16.58;7.57;;;7.10;91.60;;;;;;4953982;28;20471;-68
2022/03/04 00:39:13;;;;;;;21.15;7.30;;;7.10;91.60;;;;;;4953851;28;20031;-68
2022/03/04 00:41:39;;;;;;;15.15;7.28;;;7.00;91.50;;;;;;4941624;29;20043;-68
2022/03/04 00:44:05;;;;;;;14.98;7.32;;;7.10;91.50;;;;;;4953422;28;20533;-68
2022/03/04 00:46:31;;;;;;;20.35;8.50;;;7.10;91.50;;;;;;4954307;28;20390;-68
2022/03/04 00:48:56;;;;;;;16.00;7.55;;;7.10;91.40;;;;;;4941599;29;20027;-70
2022/03/04 00:51:22;;;;;;;22.33;8.52;;;7.00;91.40;;;;;;4953660;28;20395;-70
2022/03/04 00:53:48;;;;;;;18.60;8.43;;;7.00;91.30;;;;;;4953933;28;20042;-70
2022/03/04 00:56:14;;;;;;;9.07;4.88;;;7.00;91.20;;;;;;4946304;28;20486;-70
2022/03/04 00:58:40;;;;;;;17.02;7.50;;;7.00;91.20;;;;;;4948218;28;20072;-70
2022/03/04 01:01:07;;;;;;;15.63;7.30;;;7.00;91.10;;;;;;4946663;28;20075;-70
2022/03/04 01:03:36;;;;;;;18.75;8.07;;;7.00;91.10;;;;;;4949719;29;20034;-70
2022/03/04 01:06:04;;;;;;;16.63;7.60;;;7.00;91.20;;;;;;4953521;28;20118;-70
2022/03/04 01:08:30;;;;;;;19.33;8.18;;;6.90;91.10;;;;;;4941124;28;20032;-70
2022/03/04 01:10:55;;;;;;;18.52;8.27;;;6.90;91.20;;;;;;4944602;28;20031;-70
2022/03/04 01:13:22;;;;;;;21.52;8.57;;;6.90;91.10;;;;;;4950405;29;20081;-71
2022/03/04 01:15:48;;;;;;;15.88;7.70;;;6.90;91.10;;;;;;4954107;28;20039;-70
2022/03/04 01:18:14;;;;;;;17.70;8.95;;;6.80;91.00;;;;;;4953623;28;20020;-70
2022/03/04 01:20:40;;;;;;;18.13;6.78;;;6.80;91.00;;;;;;4953082;28;20552;-70
2022/03/04 01:23:05;;;;;;;18.80;8.07;;;6.80;91.00;;;;;;4953180;28;20484;-70
2022/03/04 01:25:32;;;;;;;15.35;7.55;;;6.80;91.00;;;;;;4942253;29;20043;-70
2022/03/04 01:27:58;;;;;;;17.60;7.13;;;6.80;91.00;;;;;;4946734;28;20032;-70
2022/03/04 01:30:24;;;;;;;16.80;7.38;;;6.80;91.00;;;;;;4946305;28;20498;-70
2022/03/04 01:32:50;;;;;;;10.27;5.45;;;6.80;91.10;;;;;;4947807;28;20106;-70
2022/03/04 01:35:15;;;;;;;15.68;6.70;;;6.70;91.10;;;;;;4952799;29;20027;-70
2022/03/04 01:37:41;;;;;;;10.55;5.10;;;6.70;91.20;;;;;;4952629;28;20027;-70
2022/03/04 01:40:08;;;;;;;11.75;5.13;;;6.70;91.30;;;;;;4941371;28;20139;-70
2022/03/04 01:42:35;;;;;;;14.80;6.80;;;6.70;91.30;;;;;;4952616;28;20102;-70
2022/03/04 01:45:01;;;;;;;14.05;6.68;;;6.70;91.40;;;;;;4945858;28;20040;-70
2022/03/04 01:47:27;;;;;;;11.50;5.00;;;6.70;91.40;;;;;;4946121;28;20429;-70
2022/03/04 01:49:53;;;;;;;11.65;6.50;;;6.60;91.40;;;;;;4942518;29;20118;-70
2022/03/04 01:52:20;;;;;;;17.30;7.53;;;6.60;91.50;;;;;;4953039;28;20120;-70
2022/03/04 01:54:45;;;;;;;12.32;5.97;;;6.60;91.50;;;;;;4952399;28;20386;-69
2022/03/04 01:57:11;;;;;;;18.85;8.32;;;6.60;91.50;;;;;;4939742;28;20043;-70
2022/03/04 01:59:37;;;;;;;18.27;8.05;;;6.60;91.50;;;;;;4953023;28;20441;-70
2022/03/04 02:02:03;;;;;;;17.60;6.85;;;6.50;91.40;;;;;;4949312;29;20032;-70
2022/03/04 02:04:29;;;;;;;17.35;7.97;;;6.60;91.50;;;;;;4943630;29;20115;-70
2022/03/04 02:06:55;;;;;;;17.10;8.35;;;6.60;91.40;;;;;;4940392;28;20122;-70
2022/03/04 02:09:20;;;;;;;15.90;7.05;;;6.50;91.40;;;;;;4942145;28;20036;-70
2022/03/04 02:11:48;;;;;;;14.23;6.43;;;6.50;91.40;;;;;;4933618;29;20036;-70
2022/03/04 02:14:15;;;;;;;13.93;6.18;;;6.50;91.40;;;;;;4933999;28;20083;-70
2022/03/04 02:16:46;;;;;;;14.40;7.55;;;6.40;91.40;;;;;;4949989;28;20490;-70
2022/03/04 02:19:22;;;;;;;20.73;8.90;;;6.40;91.30;;;;;;4941172;29;20130;-70
2022/03/04 02:21:51;;;;;;;14.57;6.18;;;6.40;91.40;;;;;;4933777;29;20079;-70
2022/03/04 02:24:18;;;;;;;7.00;4.03;;;6.40;91.40;;;;;;4947240;28;20106;-70
2022/03/04 02:26:44;;;;;;;13.82;5.45;;;6.40;91.50;;;;;;4952862;29;20035;-70
2022/03/04 02:29:10;;;;;;;15.02;6.43;;;6.40;91.50;;;;;;4950923;29;20027;-70
2022/03/04 02:31:36;;;;;;;24.92;9.93;;;6.40;91.50;;;;;;4944834;28;20034;-70
2022/03/04 02:34:02;;;;;;;15.02;7.03;;;6.40;91.60;;;;;;4948622;28;21341;-70
2022/03/04 02:36:28;;;;;;;17.35;8.35;;;6.30;91.50;;;;;;4951605;29;20474;-70
2022/03/04 02:38:53;;;;;;;16.60;6.00;;;6.30;91.50;;;;;;4962175;28;20040;-70
2022/03/04 02:41:19;;;;;;;17.90;7.72;;;6.30;91.40;;;;;;4962731;28;20479;-70
2022/03/04 02:43:45;;;;;;;17.70;6.70;;;6.30;91.50;;;;;;4951526;28;20035;-70
2022/03/04 02:46:11;;;;;;;12.82;5.85;;;6.30;91.50;;;;;;4960603;28;20035;-70
2022/03/04 02:48:36;;;;;;;10.13;4.43;;;6.20;91.60;;;;;;4957258;28;20035;-70
2022/03/04 02:51:02;;;;;;;10.13;5.10;;;6.30;91.60;;;;;;4968870;28;20038;-70
2022/03/04 02:53:27;;;;;;;14.77;6.43;;;6.20;91.60;;;;;;4951596;28;20038;-69
2022/03/04 02:55:53;;;;;;;15.63;6.97;;;6.20;91.60;;;;;;4962587;28;20051;-69
2022/03/04 02:58:19;;;;;;;12.30;5.68;;;6.20;91.70;;;;;;4950801;28;20034;-70
2022/03/04 03:00:45;;;;;;;12.73;5.68;;;6.20;91.70;;;;;;4973475;28;20043;-70
2022/03/04 03:03:10;;;;;;;17.23;6.97;;;6.20;91.80;;;;;;4960017;28;20114;-70
2022/03/04 03:05:36;;;;;;;17.98;7.10;;;6.10;91.70;;;;;;4960763;28;20031;-70
2022/03/04 03:08:01;;;;;;;10.13;5.03;;;6.10;91.70;;;;;;4963166;28;20085;-69
2022/03/04 03:10:27;;;;;;;17.35;7.55;;;6.10;91.70;;;;;;4967620;28;20037;-69
2022/03/04 03:12:53;;;;;;;15.52;7.32;;;6.10;91.60;;;;;;4967280;28;20028;-70
2022/03/04 03:15:18;;;;;;;15.60;6.85;;;6.00;91.60;;;;;;4951646;28;20027;-70
2022/03/04 03:17:44;;;;;;;14.05;6.32;;;6.00;91.50;;;;;;4936343;28;20032;-70
2022/03/04 03:20:11;;;;;;;7.90;3.67;;;6.00;91.60;;;;;;4951189;29;20046;-70
2022/03/04 03:22:36;;;;;;;7.00;2.38;;;6.00;91.60;;;;;;4951890;28;20031;-69
2022/03/04 03:25:04;;;;;;;17.35;6.55;;;6.00;91.60;;;;;;4952278;28;20505;-69
2022/03/04 03:27:32;;;;;;;10.70;3.92;;;5.90;91.60;;;;;;4950997;28;20070;-70
2022/03/04 03:29:58;;;;;;;10.57;4.68;;;6.00;91.60;;;;;;4949217;28;20031;-70
2022/03/04 03:32:23;;;;;;;14.57;6.05;;;5.90;91.70;;;;;;4948985;28;20593;-69
2022/03/04 03:34:49;;;;;;;16.27;7.28;;;5.90;91.70;;;;;;4950355;28;20036;-70
2022/03/04 03:37:16;;;;;;;17.90;7.65;;;5.90;91.70;;;;;;4951914;28;20035;-69
2022/03/04 03:39:43;;;;;;;19.48;8.25;;;5.80;91.60;;;;;;4950602;28;20058;-69
2022/03/04 03:42:08;;;;;;;22.20;7.97;;;5.80;91.70;;;;;;4951287;28;20027;-70
2022/03/04 03:44:34;;;;;;;23.27;9.48;;;5.80;91.60;;;;;;4950508;28;20057;-70
2022/03/04 03:47:00;;;;;;;23.02;8.05;;;5.80;91.60;;;;;;4944572;28;20080;-70
2022/03/04 03:49:26;;;;;;;16.65;7.50;;;5.80;91.50;;;;;;4949998;28;20046;-69
2022/03/04 03:51:51;;;;;;;16.95;7.38;;;5.70;91.50;;;;;;4950067;28;20028;-70
2022/03/04 03:54:17;;;;;;;17.08;6.72;;;5.80;91.50;;;;;;4943142;28;20115;-70
2022/03/04 03:56:43;;;;;;;20.00;8.40;;;5.70;91.50;;;;;;4951355;29;20051;-67
2022/03/04 03:59:09;;;;;;;11.07;5.43;;;5.70;91.40;;;;;;4951376;28;20035;-67
2022/03/04 04:01:35;;;;;;;19.80;5.78;;;5.70;91.40;;;;;;4943154;28;20071;-67
2022/03/04 04:04:01;;;;;;;13.38;6.25;;;5.70;91.40;;;;;;4943169;28;20077;-67
2022/03/04 04:06:26;;;;;;;14.80;6.88;;;5.70;91.40;;;;;;4944652;29;20040;-67
2022/03/04 04:08:52;;;;;;;18.88;8.10;;;5.60;91.40;;;;;;4942117;29;20047;-67
2022/03/04 04:11:18;;;;;;;19.30;8.40;;;5.60;91.30;;;;;;4951086;28;20035;-67
2022/03/04 04:13:47;;;;;;;14.52;7.22;;;5.60;91.30;;;;;;4951380;28;20031;-67
2022/03/04 04:16:14;;;;;;;21.42;8.52;;;5.60;91.40;;;;;;4950343;29;20031;-67
2022/03/04 04:18:40;;;;;;;16.60;7.90;;;5.60;91.50;;;;;;4951178;29;20054;-67
2022/03/04 04:21:06;;;;;;;11.48;5.95;;;5.50;91.50;;;;;;4942855;28;20058;-67
2022/03/04 04:23:32;;;;;;;5.53;4.00;;;5.50;91.70;;;;;;4950562;28;20035;-67
2022/03/04 04:25:58;;;;;;;18.88;7.72;;;5.50;91.80;;;;;;4940666;28;20388;-67
2022/03/04 04:28:25;;;;;;;13.57;6.25;;;5.40;91.80;;;;;;4949147;28;20386;-67
2022/03/04 04:30:51;;;;;;;20.23;10.02;;;5.40;91.80;;;;;;4950554;28;20047;-67
2022/03/04 04:33:17;;;;;;;9.85;4.60;;;5.40;91.80;;;;;;4945663;28;20059;-67
2022/03/04 04:35:43;;;;;;;19.92;6.95;;;5.40;91.80;;;;;;4944116;28;20071;-67
2022/03/04 04:38:09;;;;;;;6.90;3.53;;;5.40;91.80;;;;;;4950163;28;20081;-67
2022/03/04 04:40:37;;;;;;;4.80;3.20;;;5.40;92.00;;;;;;4951057;29;20047;-67
2022/03/04 04:43:03;;;;;;;6.32;4.03;;;5.40;92.10;;;;;;4942341;29;20023;-67
2022/03/04 04:45:29;;;;;;;8.95;5.05;;;5.30;92.20;;;;;;4949616;28;20457;-68
2022/03/04 04:47:54;;;;;;;19.63;8.63;;;5.30;92.50;;;;;;4938864;28;20070;-67
2022/03/04 04:50:20;;;;;;;15.07;7.57;;;5.30;92.30;;;;;;4950133;28;20032;-67
2022/03/04 04:52:45;;;;;;;7.63;4.15;;;5.30;92.30;;;;;;4950883;28;20483;-67
2022/03/04 04:55:11;;;;;;;18.13;8.23;;;5.20;92.40;;;;;;4949178;28;20062;-67
2022/03/04 04:57:37;;;;;;;2.75;1.75;;;5.20;92.50;;;;;;4946940;28;20043;-67
2022/03/04 05:00:04;;;;;;;15.48;7.45;;;5.20;92.50;;;;;;4945176;29;20047;-66
2022/03/04 05:02:29;;;;;;;20.13;8.05;;;5.20;92.50;;;;;;4941895;28;20031;-67
2022/03/04 05:04:55;;;;;;;17.80;7.25;;;5.10;92.40;;;;;;4953431;28;20035;-67
2022/03/04 05:07:20;;;;;;;20.73;9.55;;;5.10;92.40;;;;;;4953582;28;20467;-69
2022/03/04 05:09:46;;;;;;;20.17;8.95;;;5.20;92.50;;;;;;4954039;28;20065;-68
2022/03/04 05:12:12;;;;;;;13.45;6.20;;;5.10;92.40;;;;;;4952292;28;20039;-67
2022/03/04 05:14:37;;;;;;;13.90;6.70;;;5.00;92.30;;;;;;4952243;28;20057;-67
2022/03/04 05:17:03;;;;;;;18.05;8.38;;;5.10;92.40;;;;;;4953793;28;20042;-67
2022/03/04 05:19:31;;;;;;;23.73;9.90;;;5.00;92.30;;;;;;4944226;28;20027;-65
2022/03/04 05:21:57;;;;;;;16.33;7.20;;;5.00;92.30;;;;;;4970911;28;20031;-66
2022/03/04 05:24:23;;;;;;;24.60;10.07;;;5.00;92.30;;;;;;4968552;28;20028;-68
2022/03/04 05:26:49;;;;;;;24.15;10.05;;;4.90;92.20;;;;;;4952892;28;20038;-67
2022/03/04 05:29:14;;;;;;;19.73;9.57;;;5.00;92.20;;;;;;4953270;29;20521;-68
2022/03/04 05:31:42;;;;;;;9.85;4.75;;;5.00;92.20;;;;;;4934783;28;20055;-68
2022/03/04 05:34:08;;;;;;;3.78;2.03;;;4.90;92.30;;;;;;4947054;29;20037;-69
2022/03/04 05:36:35;;;;;;;5.22;3.05;;;4.90;92.50;;;;;;4952913;28;20031;-68
2022/03/04 05:39:01;;;;;;;16.15;6.20;;;4.90;92.70;;;;;;4953186;28;20126;-68
2022/03/04 05:41:26;;;;;;;9.50;4.80;;;4.90;92.80;;;;;;4952849;29;20130;-69
2022/03/04 05:43:52;;;;;;;25.80;9.73;;;4.90;92.90;;;;;;4952650;28;20106;-68
2022/03/04 05:46:18;;;;;;;16.35;7.53;;;4.90;92.90;;;;;;4953263;28;20031;-67
2022/03/04 05:48:44;;;;;;;26.40;10.00;;;4.90;92.90;;;;;;4952074;28;20483;-67
2022/03/04 05:51:10;;;;;;;15.88;7.03;;;4.90;92.90;;;;;;4964047;28;20029;-67
2022/03/04 05:53:36;;;;;;;8.32;4.72;;;4.90;92.80;;;;;;4960698;28;20040;-68
2022/03/04 05:56:04;;;;;;;19.42;8.18;;;4.90;92.80;;;;;;4951276;28;20113;-72
2022/03/04 05:58:36;;;;;;;10.93;5.47;;;4.90;92.90;;;;;;4951082;28;20049;-68
2022/03/04 06:01:06;;;;;;;6.90;3.28;;;4.90;93.00;;;;;;4948162;28;20387;-68
2022/03/04 06:03:31;;;;;;;9.13;4.72;;;4.90;93.00;;;;;;4951252;28;20096;-70
2022/03/04 06:05:57;;;;;;;4.88;2.70;;;4.90;93.00;;;;;;4950906;28;20035;-70
2022/03/04 06:08:23;;;;;;;7.07;3.60;;;4.90;93.10;;;;;;4948714;28;20031;-68
2022/03/04 06:10:49;;;;;;;10.35;4.13;;;4.90;93.10;;;;;;4950219;28;20032;-67
2022/03/04 06:13:14;;;;;;;5.57;3.08;;;4.90;93.10;;;;;;4950941;28;20023;-67
2022/03/04 06:15:40;;;;;;;7.32;3.47;;;4.90;93.20;;;;;;4950295;28;20100;-67
2022/03/04 06:18:06;;;;;;;3.33;2.42;;;4.90;93.20;;;;;;4951024;28;20034;-68
2022/03/04 06:20:32;;;;;;;12.88;6.18;;;4.90;93.30;;;;;;4952525;28;20540;-68
2022/03/04 06:22:58;;;;;;;12.13;6.28;;;4.90;93.30;;;;;;4939937;28;20537;-67
2022/03/04 06:25:24;;;;;;;14.88;7.40;;;4.90;93.30;;;;;;4958306;28;20089;-67
2022/03/04 06:28:03;;;;;;;16.25;5.63;;;4.90;93.20;;;;;;4951737;28;20467;-67
2022/03/04 06:30:34;;;;;;;13.32;6.80;;;4.90;93.20;;;;;;4949982;29;20035;-72
2022/03/04 06:36:00;;;;;;;14.45;6.28;;;4.90;93.00;;;;;;4953580;28;20114;-72
2022/03/04 06:38:25;;;;;;;11.68;6.07;;;4.90;93.00;;;;;;4948486;28;20034;-69
2022/03/04 06:40:52;;;;;;;12.70;6.15;;;4.90;93.10;;;;;;4950970;28;20043;-70
2022/03/04 06:43:18;;;;;;;13.63;6.50;;;4.90;93.10;;;;;;4959321;28;20037;-68
2022/03/04 06:45:46;;;;;;;11.63;6.50;;;4.90;93.10;;;;;;4949509;28;20035;-69
2022/03/04 06:48:12;;;;;;;11.60;5.30;;;4.90;93.10;;;;;;4952451;28;20119;-68
2022/03/04 06:50:38;;;;;;;10.30;4.82;;;4.90;93.10;;;;;;4945203;28;20039;-70
2022/03/04 06:53:04;;;;;;;11.63;5.90;;;4.90;93.10;;;;;;4952224;28;20375;-67
2022/03/04 06:55:31;;;;;;;15.00;6.40;;;4.90;93.00;;;;;;4947371;28;20048;-66
2022/03/04 06:57:56;;;;;;;10.52;4.15;;;5.00;93.00;;;;;;4939009;29;20502;-67
2022/03/04 07:00:24;;;;;;;9.73;5.18;;;5.00;93.00;;;;;;4939329;28;20109;-67
2022/03/04 07:02:50;;;;;;;6.90;2.78;;;5.00;93.00;;;;;;4952323;28;20501;-67
2022/03/04 07:05:15;;;;;;;3.35;2.22;;;4.90;93.10;;;;;;4950217;28;20039;-67
2022/03/04 07:07:41;;;;;;;9.88;4.50;;;5.00;93.10;;;;;;4940458;28;20142;-67
2022/03/04 07:10:08;;;;;;;12.98;5.07;;;5.00;93.20;;;;;;4949920;28;20048;-67
2022/03/04 07:12:34;;;;;;;4.38;2.70;;;5.00;93.20;;;;;;4943148;28;20078;-67
2022/03/04 07:15:00;;;;;;;7.57;4.15;;;5.00;93.50;;;;;;4947318;28;20047;-67
2022/03/04 07:17:26;;;;;;;6.13;3.22;;;5.00;93.50;;;;;;4952002;28;20395;-67
2022/03/04 07:19:51;;;;;;;14.07;7.00;;;5.00;93.20;;;;;;4950579;28;20391;-67
2022/03/04 07:22:17;;;;;;;11.90;5.18;;;5.00;93.20;;;;;;4951737;28;20398;-67
2022/03/04 07:24:42;;;;;;;9.60;4.63;;;5.00;93.20;;;;;;4939751;28;20027;-67
2022/03/04 07:27:10;;;;;;;17.50;8.70;;;5.00;93.50;;;;;;4950139;28;20031;-67
2022/03/04 07:29:35;;;;;;;9.15;2.63;;;5.00;93.20;;;;;;4950936;28;20393;-66
2022/03/04 07:32:01;;;;;;;11.35;4.85;;;5.00;93.20;;;;;;4951089;29;20479;-67
2022/03/04 07:34:26;;;;;;;5.97;3.58;;;5.00;93.20;;;;;;4951721;28;20373;-69
2022/03/04 07:36:52;;;;;;;7.65;3.65;;;5.00;93.20;;;;;;4942087;28;20369;-67
2022/03/04 07:39:19;;;;;;;8.93;4.32;;;5.00;93.20;;;;;;4946558;29;20023;-69
2022/03/04 07:41:48;;;;;;;10.68;5.95;;;5.00;93.20;;;;;;4951744;28;20042;-67
2022/03/04 07:44:17;;;;;;;17.20;7.25;;;5.00;93.20;;;;;;4935501;29;20036;-67
2022/03/04 07:46:42;;;;;;;13.10;6.78;;;5.00;93.20;;;;;;4932761;28;20036;-67
2022/03/04 07:49:08;;;;;;;14.88;7.07;;;5.10;93.20;;;;;;4950509;28;20031;-67
2022/03/04 07:51:34;;;;;;;9.25;4.43;;;5.00;93.10;;;;;;4951738;28;20659;-67
2022/03/04 07:54:00;;;;;;;12.68;5.63;;;5.00;93.20;;;;;;4950605;28;20387;-67
2022/03/04 07:56:25;;;;;;;19.20;7.72;;;5.10;93.20;;;;;;4951271;28;20134;-67
2022/03/04 07:58:51;;;;;;;17.23;9.07;;;5.10;93.20;;;;;;4951186;28;20122;-67
2022/03/04 08:01:17;;;;;;;21.52;9.02;;;5.10;93.40;;;;;;4944084;28;20070;-67
2022/03/04 08:03:43;;;;;;;19.98;9.52;;;5.00;92.90;;;;;;4946278;29;20388;-67
2022/03/04 08:06:12;;;;;;;20.17;9.15;;;5.00;92.90;;;;;;4944345;28;20047;-67
2022/03/04 08:08:39;;;;;;;8.70;4.78;;;5.10;92.80;;;;;;4946250;29;20105;-66
2022/03/04 08:11:05;;;;;;;22.88;10.80;;;5.00;92.80;;;;;;4951709;28;20430;-67
2022/03/04 08:13:32;;;;;;;9.35;4.20;;;5.00;92.80;;;;;;4950907;28;20169;-67
2022/03/04 08:15:58;;;;;;;10.75;5.80;;;5.10;92.90;;;;;;4950677;28;20031;-67
2022/03/04 08:18:24;;;;;;;19.60;7.85;;;5.10;93.00;;;;;;4948654;28;20032;-71
2022/03/04 08:20:50;;;;;;;20.08;9.45;;;5.10;93.00;;;;;;4941769;29;20031;-67
2022/03/04 08:23:17;;;;;;;26.27;12.27;;;5.10;93.00;;;;;;4963479;28;20053;-67
2022/03/04 08:25:44;;;;;;;21.15;11.52;;;5.10;92.90;;;;;;4997497;28;20031;-67
2022/03/04 08:28:12;;;;;;;22.92;11.02;;;5.10;92.90;;;;;;4951298;28;20023;-67
2022/03/04 08:30:38;;;;;;;21.15;9.48;;;5.10;92.90;;;;;;4961073;28;20039;-67
2022/03/04 08:33:03;;;;;;;15.88;7.50;;;5.20;92.90;;;;;;4985143;28;20114;-67
2022/03/04 08:35:29;;;;;;;26.95;11.65;;;5.20;92.90;;;;;;4963756;28;20031;-68
2022/03/04 08:37:55;;;;;;;23.67;10.68;;;5.20;92.90;;;;;;4970263;28;20028;-67
2022/03/04 08:40:21;;;;;;;20.02;8.70;;;5.20;92.80;;;;;;4970702;28;20067;-67
2022/03/04 08:42:47;;;;;;;25.10;10.75;;;5.20;92.80;;;;;;4963829;28;20522;-68
2022/03/04 08:45:14;;;;;;;25.33;10.88;;;5.20;92.80;;;;;;4957030;28;20027;-68
2022/03/04 08:47:43;;;;;;;26.77;11.73;;;5.20;92.70;;;;;;4959794;28;20027;-68
2022/03/04 08:50:10;;;;;;;24.35;10.68;;;5.20;92.70;;;;;;4976543;28;20041;-68
2022/03/04 08:52:36;;;;;;;23.35;10.43;;;5.20;92.70;;;;;;4973350;28;20027;-67
2022/03/04 08:55:02;;;;;;;25.60;10.48;;;5.20;92.70;;;;;;4984753;28;20050;-68
2022/03/04 08:57:28;;;;;;;23.40;10.40;;;5.30;92.70;;;;;;4954661;28;20038;-67
2022/03/04 08:59:53;;;;;;;20.65;10.75;;;5.30;92.70;;;;;;4964067;28;20096;-67
2022/03/04 09:02:19;;;;;;;10.80;5.13;;;5.30;92.60;;;;;;4965754;28;20116;-68
2022/03/04 09:04:45;;;;;;;30.95;14.00;;;5.30;92.70;;;;;;4981864;28;20024;-67
2022/03/04 09:07:10;;;;;;;22.63;10.23;;;5.40;92.60;;;;;;4964004;28;20496;-69
2022/03/04 09:09:36;;;;;;;18.13;8.80;;;5.30;92.50;;;;;;4952647;28;20046;-68
2022/03/04 09:12:02;;;;;;;28.08;12.20;;;5.40;92.50;;;;;;4952372;28;20082;-67
2022/03/04 09:14:28;;;;;;;22.88;10.23;;;5.40;92.50;;;;;;4943310;28;20593;-67
2022/03/04 09:16:53;;;;;;;24.80;11.35;;;5.40;92.40;;;;;;4962825;28;20042;-67
2022/03/04 09:19:19;;;;;;;4.65;3.15;;;5.40;92.40;;;;;;4951581;28;20035;-67
2022/03/04 09:21:47;;;;;;;24.60;11.27;;;5.40;92.40;;;;;;4960683;28;20038;-67
2022/03/04 09:24:14;;;;;;;7.22;3.83;;;5.50;92.40;;;;;;5002845;28;20069;-67
2022/03/04 09:26:42;;;;;;;6.00;3.17;;;5.50;92.50;;;;;;4942863;28;20035;-69
2022/03/04 09:29:08;;;;;;;15.40;6.03;;;5.50;92.50;;;;;;4950573;28;20523;-69
2022/03/04 09:31:34;;;;;;;20.13;8.82;;;5.60;92.60;;;;;;4955649;28;20126;-69
2022/03/04 09:34:00;;;;;;;22.38;10.98;;;5.60;92.50;;;;;;4946659;29;20027;-68
2022/03/04 09:36:25;;;;;;;13.00;6.38;;;5.60;92.50;;;;;;4974131;28;20085;-68
2022/03/04 09:38:51;;;;;;;22.45;10.57;;;5.60;92.40;;;;;;4945069;28;20044;-69
2022/03/04 09:41:17;;;;;;;8.77;4.47;;;5.60;92.50;;;;;;4932861;29;20043;-69
2022/03/04 09:43:44;;;;;;;6.70;4.15;;;5.70;92.60;;;;;;4952073;28;20035;-69
2022/03/04 09:46:10;;;;;;;10.15;5.15;;;5.70;92.70;;;;;;4943258;28;20068;-69
2022/03/04 09:48:40;;;;;;;19.55;9.85;;;5.70;92.70;;;;;;4953654;28;20038;-69
2022/03/04 09:51:09;;;;;;;18.67;8.43;;;5.80;92.50;;;;;;4945621;28;20122;-69
2022/03/04 09:53:35;;;;;;;13.07;7.47;;;5.80;92.50;;;;;;4949488;28;20110;-69
2022/03/04 09:56:02;;;;;;;21.45;8.45;;;5.80;92.60;;;;;;4947460;28;20561;-68
2022/03/04 09:58:27;;;;;;;21.80;9.48;;;5.80;92.60;;;;;;4947029;28;20058;-69
2022/03/04 10:00:54;;;;;;;11.23;6.28;;;5.90;92.60;;;;;;4952136;28;20126;-68
2022/03/04 10:03:29;;;;;;;23.90;10.65;;;5.90;92.50;;;;;;4953092;28;20115;-68
2022/03/04 10:05:56;;;;;;;20.83;8.82;;;5.90;92.40;;;;;;4951826;28;20386;-69
2022/03/04 10:08:23;;;;;;;18.38;9.65;;;6.00;92.40;;;;;;4951372;28;20023;-68
2022/03/04 10:10:50;;;;;;;15.50;7.03;;;6.00;92.30;;;;;;4964108;28;20051;-68
2022/03/04 10:13:16;;;;;;;20.10;9.48;;;6.10;92.30;;;;;;4936833;28;20031;-69
2022/03/04 10:15:54;;;;;;;15.73;8.38;;;6.00;92.20;;;;;;4945618;28;20039;-68
2022/03/04 10:18:25;;;;;;;18.00;8.95;;;6.10;92.10;;;;;;4951471;29;20069;-68
2022/03/04 10:20:51;;;;;;;18.45;8.10;;;6.10;92.10;;;;;;4950990;28;20051;-68
2022/03/04 10:23:20;;;;;;;17.27;8.82;;;6.20;92.10;;;;;;4941582;28;20027;-68
2022/03/04 10:25:48;;;;;;;8.73;4.72;;;6.20;92.10;;;;;;4952959;28;20106;-68
2022/03/04 10:28:15;;;;;;;16.77;8.40;;;6.20;92.10;;;;;;4946425;28;20042;-68
2022/03/04 10:30:51;;;;;;;20.55;9.90;;;6.30;92.10;;;;;;4938120;28;20043;-68
2022/03/04 10:33:19;;;;;;;17.73;6.30;;;6.40;92.00;;;;;;4941386;28;20031;-69
2022/03/04 10:35:46;;;;;;;15.35;7.90;;;6.40;91.90;;;;;;4937527;28;20089;-69
2022/03/04 10:38:21;;;;;;;14.30;7.85;;;6.40;92.00;;;;;;4951025;29;20100;-68
2022/03/04 10:40:48;;;;;;;3.50;2.22;;;6.50;91.90;;;;;;4951547;28;20075;-73
2022/03/04 10:43:21;;;;;;;14.73;7.22;;;6.50;92.10;;;;;;4951499;28;20027;-67
2022/03/04 10:45:47;;;;;;;;;;;6.60;92.10;;;;;;4952153;28;20119;-67
2022/03/04 10:48:15;;;;;;;16.15;8.32;;;6.60;92.00;;;;;;4940444;29;20388;-67
2022/03/04 10:50:44;;;;;;;14.93;6.25;;;6.60;91.60;;;;;;4940137;28;20036;-66
2022/03/04 10:53:18;;;;;;;7.95;4.43;;;6.60;91.70;;;;;;4970169;28;20029;-67
2022/03/04 10:55:47;;;;;;;4.47;3.33;;;6.70;91.90;;;;;;5000922;28;20046;-68
2022/03/04 10:58:22;;;;;;;24.52;7.60;;;6.70;92.00;;;;;;4958812;28;20038;-67
2022/03/04 11:00:49;;;;;;;19.77;9.57;;;6.70;92.10;;;;;;4959865;28;20510;-67
2022/03/04 11:03:29;;;;;;;17.20;7.95;;;6.80;91.90;;;;;;4951808;28;20027;-67
2022/03/04 11:06:00;;;;;;;13.30;6.15;;;6.80;91.90;;;;;;4951381;28;20050;-67
2022/03/04 11:08:26;;;;;;;5.63;3.20;;;6.90;92.00;;;;;;4949542;28;20133;-67
2022/03/04 11:10:54;;;;;;;12.35;4.72;;;6.90;92.10;;;;;;4932509;28;20162;-67
2022/03/04 11:13:22;;;;;;;4.82;2.85;;;7.00;92.20;;;;;;4933304;29;20030;-67
2022/03/04 11:15:49;;;;;;;9.73;4.03;;;7.00;92.40;;;;;;4952175;28;20043;-67
2022/03/04 11:18:18;;;;;;;3.58;2.50;;;7.00;92.30;;;;;;4951109;28;20031;-67
2022/03/04 11:20:46;;;;;;;17.15;6.57;;;7.10;92.40;;;;;;4950768;28;20086;-67
2022/03/04 11:23:24;;;;;;;21.17;9.00;;;7.10;92.30;;;;;;4951008;28;20035;-68
2022/03/04 11:26:02;;;;;;;9.15;4.10;;;7.20;92.20;;;;;;4950317;28;20035;-67
2022/03/04 11:28:45;;;;;;;8.07;4.20;;;7.20;92.30;;;;;;4950622;28;20066;-68
2022/03/04 11:31:13;;;;;;;10.30;5.32;;;7.20;92.30;;;;;;4947854;28;20031;-68
2022/03/04 11:33:43;;;;;;;7.07;3.88;;;7.30;92.40;;;;;;4950822;28;20043;-68
2022/03/04 11:36:28;;;;;;;7.63;3.55;;;7.30;92.50;;;;;;4961707;28;20037;-68
2022/03/04 11:38:56;;;;;;;8.70;3.35;;;7.30;92.50;;;;;;4951180;28;20038;-68
2022/03/04 11:41:30;;;;;;;1.42;1.30;;;7.40;92.60;;;;;;4951453;28;20047;-67
2022/03/04 11:44:12;;;;;;;5.90;3.10;;;7.30;92.60;;;;;;4951699;29;20043;-68
2022/03/04 11:46:48;;;;;;;10.15;5.15;;;7.40;92.70;;;;;;4946237;28;20038;-68
2022/03/04 11:49:23;;;;;;;10.90;3.78;;;7.40;92.70;;;;;;4933303;28;20047;-67
2022/03/04 11:52:07;;;;;;;6.43;4.45;;;7.40;92.60;;;;;;4951859;28;20032;-68
2022/03/04 11:54:34;;;;;;;6.53;3.80;;;7.50;92.70;;;;;;4950394;28;20033;-67
2022/03/04 11:57:34;;;;;;;11.10;5.00;;;7.50;92.70;;;;;;4951590;29;20043;-68
2022/03/04 12:00:10;;;;;;;10.77;4.78;;;7.50;92.70;;;;;;4941849;28;20479;-67
2022/03/04 12:02:43;;;;;;;6.70;3.15;;;7.50;92.70;;;;;;4951232;29;20044;-68
2022/03/04 12:05:28;;;;;;;4.35;2.60;;;7.50;92.80;;;;;;4939491;28;20036;-67
2022/03/04 12:07:54;;;;;;;11.27;3.80;;;7.50;92.90;;;;;;4942089;29;20050;-68
2022/03/04 12:10:22;;;;;;;4.15;2.00;;;7.60;93.20;;;;;;4954518;28;20032;-68
2022/03/04 12:13:00;;;;;;;8.02;4.18;;;7.60;93.00;;;;;;4954910;28;20031;-68
2022/03/04 12:15:26;;;;;;;6.30;3.65;;;7.60;93.10;;;;;;4953666;28;20043;-68
2022/03/04 12:17:54;;;;;;;8.48;4.30;;;7.70;93.10;;;;;;4965108;28;20035;-67
2022/03/04 12:20:30;;;;;;;7.28;4.07;;;7.70;93.00;;;;;;4952356;28;20043;-67
2022/03/04 12:23:06;;;;;;;7.85;4.40;;;7.70;93.00;;;;;;4954770;28;20038;-67
2022/03/04 12:25:54;;;;;;;6.43;3.35;;;7.70;93.00;;;;;;4954475;28;20154;-67
2022/03/04 12:28:22;;;;;;;13.18;5.28;;;7.70;93.00;;;;;;4954148;28;20114;-70
2022/03/04 12:31:12;;;;;;;13.15;6.43;;;7.70;93.10;;;;;;4954795;28;20033;-70
2022/03/04 12:33:52;;;;;;;9.60;4.15;;;7.80;93.10;;;;;;4945818;28;20119;-68
2022/03/04 12:36:18;;;;;;;5.38;3.17;;;7.80;93.10;;;;;;4947128;29;20035;-67
2022/03/04 12:38:49;;;;;;;9.20;4.53;;;7.80;93.20;;;;;;4964476;28;20038;-67
2022/03/04 12:41:17;;;;;;;4.05;2.40;;;7.90;93.20;;;;;;4953742;28;20043;-67
2022/03/04 12:43:53;;;;;;;12.85;6.82;;;7.90;93.30;;;;;;4953851;28;20030;-67
2022/03/04 12:46:22;;;;;;;15.77;7.07;;;7.90;93.40;;;;;;4979790;28;20372;-68
2022/03/04 12:48:50;;;;;;;13.90;7.18;;;7.90;93.10;;;;;;4975293;28;20055;-68
2022/03/04 12:51:18;;;;;;;12.45;4.90;;;7.90;93.10;;;;;;4961861;28;20487;-68
2022/03/04 12:53:44;;;;;;;15.88;4.82;;;8.00;93.20;;;;;;4967487;28;20031;-68